METAR Data
IDs: Format: Raw Decoded Include TAF

Data at: 1328 UTC 26 Feb 2021

ESPA 261320Z 32015KT CAVOK 05/M01 Q1003